Kearney, NE

12:40 PM CDT on May 29, 2015 (GMT -0500)
Regency | | Change Station
CLOSE
Current Station
Personal Weather Station
Location: Kearney, NE
Elevation: 2224 ft
Nearby Weather Stations
Active Advisory: Flood Warning

Elev 2224 ft 40.72 °N, 99.08 °W | Updated 5 seconds ago

Mostly Cloudy
Mostly Cloudy
72.6 °F
Feels Like 76 °F
N
8.8
Wind Variable Wind from NE
Gusts 16.1 mph

Today
High -- | Low -- °F
--% Chance of Precip.
Yesterday
High -- | Low -- °F
Precip. -- in
6:09 AM 8:59 PM
Waxing Gibbous, 85% visible
Pressure 29.98 in
Visibility 10.0 miles
Clouds Mostly Cloudy 4300 ft
Heat Index 76 °F
Dew Point 59 °F
Humidity 62%
Rainfall 0.00 in
Snow Depth Not available.
UV 6 out of 12
Pollen 2.70 out of 12
Air Quality Not available.
Flu Activity No Activity
METAR KEAR 291735Z AUTO 34015G18KT 10SM BKN043 23/13 A2998 RMK AO1

More Conditions Fewer Conditions

Pressure 29.98 in
Visibility 10.0 miles
Clouds Mostly Cloudy 4300 ft
Heat Index 76 °F
Dew Point 59 °F
Humidity 62%
Rainfall 0.00 in
Snow Depth Not available.
UV 6 out of 12
Pollen 2.70 out of 12
Air Quality Not available.
Flu Activity No Activity
METAR KEAR 291735Z AUTO 34015G18KT 10SM BKN043 23/13 A2998 RMK AO1

More Conditions Fewer Conditions

10-Day Weather Forecast

Almanac

Astronomy

May. 29, 2015 Rise Set
Actual Time
Civil Twilight
Nautical Twilight
Astronomical Twilight
Moon
Length of Visible Light
Length of Day
Tomorrow will be .
, % of the Moon is Illuminated

Today's Extremes

State Highs State Lows

Community

WunderPhotos

Upload Photos

1,825,306 photos uploaded!

WunderBlogs® & News

Nearby

Air Quality

  Air Quality AQ Index Pollutant
Not available.

Snow Depth

Station Depth Elevation

Earthquake Activity

City Distance Mag. Time & Date
Minimum magnitude displayed is 2.5.

Coastal Water Temperatures

Place Temperature

Stations

Nearby Weather Stations

Station Location Temp. Windchill Dew Point Humidity Wind Precip. Elev Updated Type
                   
Flood Warning
Statement as of 9:41 AM CDT on May 29, 2015

The Flood Warning continues for
the Platte River near Kearney.
* At 9:15 am Friday the stage was 6.5 feet.
* Flood stage is 6.0 feet.
* Minor flooding is occurring and minor flooding is forecast.
* Forecast... the river is forecast to begin a slow rise and
crest again around 6.7 feet late Sunday and Monday. This
crest would be slightly below the crest on may 22 of
7 feet. The river will remain above flood stage for
several days. It is important to remember this forecast is
based on water which is already in the Platte
River basin. Changes to the forecast water level will be
possible should substantial rainfall be realized across
the basin through south central or western Nebraska at
anytime this week or next.
* At 6.0 feet... minor flooding of rural lowlands occur.


Lat... Lon 4069 9925 4083 9839 4079 9833 4065 9889
      4061 9925